GW2190 Weather Reports


Display with metric or nautical units.
time (UTC)temp
F
wind
direction
speed
MPH
gust
MPH
rain 1hr
in
rain 24hr
in
rain mn
in
humidity
%
barometer
mb
20240224035841 39 202 0.0 1.0 0.00 0.00 0.00 67 1020.3
20240224035339 39 202 1.0 2.0 0.00 0.00 0.00 67 1020.2
20240224034838 39 197 1.0 2.0 0.00 0.00 0.00 67 1020.5
20240224034335 40 167 0.0 0.0 0.00 0.00 0.00 64 1020.2
20240224033835 41 158 0.0 1.0 0.00 0.00 0.00 61 1020.5
20240224033333 41 4 3.0 3.0 0.00 0.00 0.00 61 1020.9
20240224032834 41 354 2.0 6.0 0.00 0.00 0.00 60 1020.8
20240224032332 41 201 1.0 6.0 0.00 0.00 0.00 60 1020.8
20240224031830 41 337 4.0 4.0 0.00 0.00 0.00 60 1020.7
20240224031328 42 315 3.0 4.0 0.00 0.00 0.00 60 1020.8
20240224030827 42 339 4.0 7.0 0.00 0.00 0.00 60 1020.8
20240224030327 42 335 5.0 6.0 0.00 0.00 0.00 60 1020.7
20240224025825 42 359 5.0 7.0 0.00 0.00 0.00 59 1020.8
20240224025324 42 14 4.0 9.0 0.00 0.00 0.00 60 1020.9
20240224024822 42 11 6.0 9.0 0.00 0.00 0.00 59 1021.0
20240224024319 42 330 6.0 9.0 0.00 0.00 0.00 60 1021.2
20240224023818 42 336 6.0 8.0 0.00 0.00 0.00 60 1021.3
20240224023318 42 323 6.0 9.0 0.00 0.00 0.00 60 1021.5
20240224022816 42 240 5.0 9.0 0.00 0.00 0.00 60 1021.2
20240224022315 42 344 6.0 9.0 0.00 0.00 0.00 60 1021.5
20240224021813 42 315 6.0 9.0 0.00 0.00 0.00 60 1021.1
20240224021311 42 322 6.0 9.0 0.00 0.00 0.00 60 1021.6
20240224020810 42 326 6.0 7.0 0.00 0.00 0.00 60 1021.8
20240224020308 42 323 5.0 8.0 0.00 0.00 0.00 60 1021.8
20240224015806 42 338 4.0 7.0 0.00 0.00 0.00 60 1021.8
20240224015306 42 333 4.0 6.0 0.00 0.00 0.00 60 1022.0
20240224014802 42 306 2.0 7.0 0.00 0.00 0.00 58 1022.1
20240224014253 43 16 2.0 4.0 0.00 0.00 0.00 56 1022.3
20240224013753 43 233 2.0 2.0 0.00 0.00 0.00 55 1022.5
20240224013252 43 298 2.0 3.0 0.00 0.00 0.00 54 1022.5
20240224012752 43 229 1.0 3.0 0.00 0.00 0.00 53 1022.7
20240224012251 43 200 0.0 1.0 0.00 0.00 0.00 54 1022.7
20240224011750 43 178 0.0 1.0 0.00 0.00 0.00 55 1022.8
20240224011250 43 176 0.0 0.0 0.00 0.00 0.00 52 1023.1
20240224010749 44 176 0.0 0.0 0.00 0.00 0.00 53 1022.8
20240224010248 44 167 0.0 1.0 0.00 0.00 0.00 52 1023.1
20240224005748 44 190 0.0 0.0 0.00 0.00 0.00 54 1023.4
20240224005246 44 215 1.0 2.0 0.00 0.00 0.00 54 1023.6
20240224004745 44 164 3.0 4.0 0.00 0.00 0.00 53 1023.5
20240224004243 45 163 3.0 4.0 0.00 0.00 0.00 53 1023.6
20240224003742 45 162 3.0 3.0 0.00 0.00 0.00 52 1024.0
20240224003241 45 179 4.0 4.0 0.00 0.00 0.00 51 1023.9
20240224002741 46 167 2.0 3.0 0.00 0.00 0.00 50 1023.9
20240224002239 47 173 1.0 3.0 0.00 0.00 0.00 51 1024.0
20240224001738 48 201 0.0 2.0 0.00 0.00 0.00 42 1023.8
20240224001237 48 160 1.0 3.0 0.00 0.00 0.00 42 1023.9
20240224000735 49 204 1.0 2.0 0.00 0.00 0.00 42 1023.9
20240224000233 48 205 0.0 0.0 0.00 0.00 0.00 42 1023.3
20240223235732 48 207 1.0 2.0 0.00 0.00 0.00 42 1023.3
20240223235231 48 18 3.0 4.0 0.00 0.00 0.00 42 1023.2
20240223234730 47 273 2.0 6.0 0.00 0.00 0.00 43 1023.2
20240223234231 48 311 4.0 4.0 0.00 0.00 0.00 44 1023.1
20240223233730 47 25 2.0 3.0 0.00 0.00 0.00 43 1023.2
20240223233229 48 48 2.0 3.0 0.00 0.00 0.00 42 1023.3
20240223232729 48 273 4.0 4.0 0.00 0.00 0.00 43 1023.2
20240223232227 49 347 2.0 4.0 0.00 0.00 0.00 42 1023.4
20240223231727 47 203 0.0 3.0 0.00 0.00 0.00 43 1023.4
20240223231225 48 324 3.0 4.0 0.00 0.00 0.00 43 1023.5
20240223230725 49 323 4.0 6.0 0.00 0.00 0.00 43 1023.5
20240223230223 47 178 0.0 1.0 0.00 0.00 0.00 44 1023.5
20240223225723 47 27 4.0 6.0 0.00 0.00 0.00 45 1023.5
20240223225222 48 357 5.0 6.0 0.00 0.00 0.00 44 1023.8
20240223224720 48 22 6.0 7.0 0.00 0.00 0.00 43 1023.5
20240223224219 48 94 3.0 4.0 0.00 0.00 0.00 43 1023.8
20240223223717 48 169 1.0 4.0 0.00 0.00 0.00 45 1023.9
20240223223218 47 176 0.0 3.0 0.00 0.00 0.00 45 1023.8
20240223222716 49 178 1.0 2.0 0.00 0.00 0.00 42 1023.9
20240223222215 47 199 0.0 2.0 0.00 0.00 0.00 46 1023.8
20240223221714 47 205 7.0 10.0 0.00 0.00 0.00 46 1024.1
20240223221213 46 224 4.0 4.0 0.00 0.00 0.00 47 1024.3
20240223220711 46 194 6.0 8.0 0.00 0.00 0.00 48 1024.3
20240223220211 48 205 3.0 3.0 0.00 0.00 0.00 45 1024.1
20240223215711 46 242 2.0 4.0 0.00 0.00 0.00 48 1024.2
20240223215211 44 203 4.0 6.0 0.00 0.00 0.00 49 1024.4
20240223214709 46 148 7.0 8.0 0.00 0.00 0.00 48 1024.4
20240223214208 45 183 2.0 7.0 0.00 0.00 0.00 49 1024.2
20240223213707 46 179 3.0 7.0 0.00 0.00 0.00 49 1024.7
20240223213204 45 182 3.0 8.0 0.00 0.00 0.00 49 1024.6
20240223212704 45 207 3.0 4.0 0.00 0.00 0.00 51 1024.8
20240223212204 44 210 4.0 7.0 0.00 0.00 0.00 51 1024.6
20240223211702 45 172 7.0 8.0 0.00 0.00 0.00 53 1024.6
20240223211200 45 186 2.0 6.0 0.00 0.00 0.00 52 1024.7
20240223210658 44 215 4.0 4.0 0.00 0.00 0.00 53 1024.9
20240223210156 44 219 4.0 7.0 0.00 0.00 0.00 52 1024.6
20240223205655 43 190 4.0 7.0 0.00 0.00 0.00 53 1025.1
20240223205153 43 158 4.0 6.0 0.00 0.00 0.00 56 1025.0
20240223204652 43 136 2.0 8.0 0.00 0.00 0.00 57 1025.4
20240223204149 42 104 3.0 3.0 0.00 0.00 0.00 55 1025.5
20240223203648 43 131 7.0 10.0 0.00 0.00 0.00 58 1025.4
20240223203147 43 161 8.0 9.0 0.00 0.00 0.00 57 1025.4
20240223202645 42 170 3.0 6.0 0.00 0.00 0.00 61 1025.4
20240223202144 43 187 4.0 6.0 0.00 0.00 0.00 59 1025.6
20240223201644 42 115 2.0 4.0 0.00 0.00 0.00 60 1025.7
20240223201141 43 147 4.0 8.0 0.00 0.00 0.00 59 1025.6
20240223200640 42 170 4.0 4.0 0.00 0.00 0.00 60 1026.0
20240223200138 42 119 3.0 3.0 0.00 0.00 0.00 59 1026.0
20240223195637 41 161 3.0 3.0 0.00 0.00 0.00 64 1025.7
20240223195135 41 177 4.0 7.0 0.00 0.00 0.00 66 1025.4
20240223194635 41 150 4.0 6.0 0.00 0.00 0.00 64 1025.2
20240223194135 41 179 5.0 6.0 0.00 0.00 0.00 67 1025.1
20240223193634 41 175 4.0 6.0 0.00 0.00 0.00 66 1025.1
20240223193134 41 173 4.0 6.0 0.00 0.00 0.00 66 1025.1
20240223192632 41 171 5.0 7.0 0.00 0.00 0.00 66 1025.1
20240223192131 40 195 2.0 4.0 0.00 0.00 0.00 67 1025.2
20240223191630 41 107 4.0 6.0 0.00 0.00 0.00 66 1025.4
20240223191128 41 163 5.0 7.0 0.00 0.00 0.00 65 1025.6
20240223190627 40 153 4.0 4.0 0.00 0.00 0.00 67 1025.5
20240223190125 40 179 7.0 8.0 0.00 0.00 0.00 68 1025.5
20240223185623 40 139 5.0 9.0 0.00 0.00 0.00 69 1025.6
20240223185122 40 172 2.0 6.0 0.00 0.00 0.00 68 1025.7
20240223184620 40 163 3.0 6.0 0.00 0.00 0.00 70 1025.8
20240223184117 39 166 5.0 6.0 0.00 0.00 0.00 70 1025.7
20240223183616 39 200 2.0 6.0 0.00 0.00 0.00 69 1025.8
20240223183115 39 124 5.0 7.0 0.00 0.00 0.00 70 1025.7
20240223182614 39 153 1.0 6.0 0.00 0.00 0.00 72 1025.8
20240223182113 39 173 3.0 4.0 0.00 0.00 0.00 70 1025.8
20240223181612 39 177 4.0 6.0 0.00 0.00 0.00 70 1026.0
20240223181109 38 173 3.0 6.0 0.00 0.00 0.00 71 1026.2
20240223180607 39 162 6.0 7.0 0.00 0.00 0.00 69 1026.0
20240223180106 39 197 7.0 8.0 0.00 0.00 0.00 69 1026.3
20240223175603 39 171 6.0 6.0 0.00 0.00 0.00 67 1026.2
20240223175102 38 173 6.0 8.0 0.00 0.00 0.00 68 1026.3
20240223174601 38 166 4.0 4.0 0.00 0.00 0.00 68 1026.5
20240223174059 38 176 2.0 3.0 0.00 0.00 0.00 67 1026.6
20240223173558 37 151 4.0 8.0 0.00 0.00 0.00 69 1026.7
20240223173057 37 148 6.0 8.0 0.00 0.00 0.00 70 1026.9
20240223172556 37 153 2.0 7.0 0.00 0.00 0.00 72 1026.6
20240223172055 38 181 2.0 4.0 0.00 0.00 0.00 73 1027.0
20240223171553 37 159 3.0 4.0 0.00 0.00 0.00 74 1026.6
20240223171051 37 166 3.0 6.0 0.00 0.00 0.00 74 1026.0
20240223170551 37 149 4.0 7.0 0.00 0.00 0.00 72 1026.2
20240223170050 37 170 4.0 6.0 0.00 0.00 0.00 74 1026.2
20240223165549 37 161 5.0 6.0 0.00 0.00 0.00 74 1026.2
20240223165048 36 175 1.0 4.0 0.00 0.00 0.00 77 1026.5
20240223164547 36 152 3.0 6.0 0.00 0.00 0.00 76 1026.6
20240223164046 36 164 6.0 7.0 0.00 0.00 0.00 76 1026.5
20240223163544 36 208 5.0 7.0 0.00 0.00 0.00 76 1026.7
20240223163043 36 186 0.0 3.0 0.00 0.00 0.00 76 1026.4
20240223162542 36 191 4.0 6.0 0.00 0.00 0.00 76 1025.9
20240223162041 35 209 3.0 3.0 0.00 0.00 0.00 77 1025.8
20240223161540 35 189 0.0 1.0 0.00 0.00 0.00 78 1025.9
20240223161039 35 215 2.0 3.0 0.00 0.00 0.00 78 1025.9
20240223160538 35 186 0.0 2.0 0.00 0.00 0.00 79 1026.0
20240223160037 35 198 1.0 2.0 0.00 0.00 0.00 80 1026.0
20240223155536 34 193 1.0 2.0 0.00 0.00 0.00 82 1025.5
20240223155034 34 205 2.0 3.0 0.00 0.00 0.00 82 1025.1
20240223154532 34 207 2.0 3.0 0.00 0.00 0.00 83 1025.0
20240223154030 33 219 2.0 3.0 0.00 0.00 0.00 83 1024.9
20240223153530 33 218 2.0 3.0 0.00 0.00 0.00 84 1024.9
20240223153028 33 201 0.0 1.0 0.00 0.00 0.00 84 1025.0
20240223152527 32 205 1.0 2.0 0.00 0.00 0.00 84 1025.2
20240223152026 32 219 2.0 3.0 0.00 0.00 0.00 84 1025.0
20240223151525 32 215 2.0 3.0 0.00 0.00 0.00 83 1024.9
20240223151023 32 207 0.0 0.0 0.00 0.00 0.00 84 1024.8
20240223150521 32 207 0.0 0.0 0.00 0.00 0.00 85 1025.0
20240223150020 31 207 0.0 0.0 0.00 0.00 0.00 86 1024.7
20240223145520 30 208 0.0 0.0 0.00 0.00 0.00 86 1024.7
20240223145018 29 211 1.0 1.0 0.00 0.00 0.00 85 1024.6
20240223144516 29 222 1.0 1.0 0.00 0.00 0.00 85 1024.1
20240223144016 28 223 1.0 1.0 0.00 0.00 0.00 85 1024.0
20240223143516 29 232 2.0 2.0 0.00 0.00 0.00 85 1023.5
20240223143015 28 246 2.0 2.0 0.00 0.00 0.00 85 1023.1
20240223142514 28 218 1.0 1.0 0.00 0.00 0.00 84 1023.1
20240223142013 28 220 1.0 2.0 0.00 0.00 0.00 82 1022.5
20240223141513 29 221 1.0 1.0 0.00 0.00 0.00 82 1022.1
20240223141011 29 268 3.0 3.0 0.00 0.00 0.00 82 1021.8
20240223140510 29 239 2.0 2.0 0.00 0.00 0.00 82 1021.5
20240223140010 28 227 2.0 2.0 0.00 0.00 0.00 81 1021.2
20240223135509 29 200 1.0 2.0 0.00 0.00 0.00 80 1021.2
20240223135007 28 226 2.0 2.0 0.00 0.00 0.00 80 1021.5
20240223134507 29 224 2.0 2.0 0.00 0.00 0.00 79 1021.5
20240223134006 30 136 1.0 2.0 0.00 0.00 0.00 78 1021.5
20240223133506 29 103 1.0 2.0 0.00 0.00 0.00 78 1021.5
20240223133004 30 248 2.0 2.0 0.00 0.00 0.00 77 1021.5
20240223132504 29 236 2.0 2.0 0.00 0.00 0.00 79 1021.8
20240223132002 29 237 2.0 2.0 0.00 0.00 0.00 80 1021.7
20240223131501 29 233 2.0 2.0 0.00 0.00 0.00 81 1021.7
20240223130959 29 221 2.0 2.0 0.00 0.00 0.00 82 1021.7
20240223130457 29 188 0.0 1.0 0.00 0.00 0.00 83 1021.9
20240223125955 29 219 0.0 1.0 0.00 0.00 0.00 85 1021.7
20240223125454 28 219 1.0 2.0 0.00 0.00 0.00 85 1021.7
20240223124952 29 226 1.0 2.0 0.00 0.00 0.00 86 1021.7
20240223124450 28 235 2.0 2.0 0.00 0.00 0.00 86 1021.7
20240223123948 29 223 2.0 2.0 0.00 0.00 0.00 85 1021.6
20240223123447 29 219 1.0 1.0 0.00 0.00 0.00 86 1021.6
20240223122945 28 219 1.0 1.0 0.00 0.00 0.00 85 1021.3
20240223122444 28 219 1.0 1.0 0.00 0.00 0.00 85 1021.6
20240223121944 29 221 1.0 2.0 0.00 0.00 0.00 84 1021.6
20240223121443 29 219 1.0 1.0 0.00 0.00 0.00 84 1021.1
20240223120942 30 222 1.0 2.0 0.00 0.00 0.00 83 1020.5
20240223120442 30 220 1.0 2.0 0.00 0.00 0.00 83 1020.4
20240223115941 30 218 1.0 2.0 0.00 0.00 0.00 83 1019.7
20240223115441 30 239 2.0 2.0 0.00 0.00 0.00 82 1019.9
20240223114940 30 281 3.0 3.0 0.00 0.00 0.00 82 1020.0
20240223114438 30 260 2.0 3.0 0.00 0.00 0.00 81 1020.3
20240223113934 30 248 2.0 2.0 0.00 0.00 0.00 81 1020.0
20240223113433 30 235 2.0 2.0 0.00 0.00 0.00 81 1020.1
20240223112931 30 238 2.0 2.0 0.00 0.00 0.00 81 1020.0
20240223112429 29 231 2.0 2.0 0.00 0.00 0.00 82 1020.1
20240223111928 30 228 2.0 2.0 0.00 0.00 0.00 82 1019.9
20240223111426 30 227 1.0 2.0 0.00 0.00 0.00 83 1020.0
20240223110924 29 238 2.0 2.0 0.00 0.00 0.00 84 1019.7
20240223110424 29 226 2.0 2.0 0.00 0.00 0.00 85 1020.0
20240223105923 29 221 1.0 2.0 0.00 0.00 0.00 85 1020.3
20240223105423 30 216 0.0 1.0 0.00 0.00 0.00 85 1020.1
20240223104922 29 228 2.0 2.0 0.00 0.00 0.00 84 1019.9
20240223104420 30 226 1.0 3.0 0.00 0.00 0.00 85 1019.9
20240223103918 29 245 2.0 3.0 0.00 0.00 0.00 85 1019.7
20240223103416 30 242 2.0 2.0 0.00 0.00 0.00 85 1019.9
20240223102914 30 224 2.0 2.0 0.00 0.00 0.00 85 1020.0
20240223102413 30 248 2.0 2.0 0.00 0.00 0.00 84 1019.9
20240223101912 30 240 2.0 2.0 0.00 0.00 0.00 84 1020.0
20240223101412 30 254 2.0 2.0 0.00 0.00 0.00 83 1019.7
20240223100911 30 219 1.0 1.0 0.00 0.00 0.00 82 1019.9
20240223100409 31 236 2.0 2.0 0.00 0.00 0.00 82 1020.0
20240223095907 31 235 2.0 2.0 0.00 0.00 0.00 82 1020.0
20240223095406 32 270 2.0 3.0 0.00 0.00 0.00 82 1019.7
20240223094905 32 246 2.0 2.0 0.00 0.00 0.00 82 1019.9
20240223094405 32 233 2.0 2.0 0.00 0.00 0.00 82 1020.0
20240223093903 32 248 2.0 2.0 0.00 0.00 0.00 82 1019.9
20240223093402 31 243 2.0 2.0 0.00 0.00 0.00 82 1020.0
20240223092901 31 216 1.0 2.0 0.00 0.00 0.00 81 1019.9
20240223092359 32 227 1.0 2.0 0.00 0.00 0.00 80 1020.1
20240223091859 32 249 2.0 3.0 0.00 0.00 0.00 80 1019.7
20240223091358 33 237 2.0 2.0 0.00 0.00 0.00 80 1019.9
20240223090856 33 245 2.0 2.0 0.00 0.00 0.00 79 1020.0
20240223090353 32 228 1.0 2.0 0.00 0.00 0.00 79 1019.9
20240223085852 33 249 2.0 2.0 0.00 0.00 0.00 79 1020.0
20240223085351 33 247 2.0 3.0 0.00 0.00 0.00 80 1020.1
20240223084851 33 247 2.0 2.0 0.00 0.00 0.00 80 1020.0
20240223084349 32 75 2.0 2.0 0.00 0.00 0.00 81 1020.0
20240223083847 32 69 2.0 2.0 0.00 0.00 0.00 82 1019.9
20240223083347 32 251 2.0 2.0 0.00 0.00 0.00 83 1019.9
20240223082846 32 244 2.0 2.0 0.00 0.00 0.00 85 1020.3
20240223082345 32 268 2.0 3.0 0.00 0.00 0.00 85 1020.1
20240223081843 31 232 2.0 2.0 0.00 0.00 0.00 85 1020.1
20240223081341 31 244 2.0 3.0 0.00 0.00 0.00 85 1020.2
20240223080840 31 224 1.0 2.0 0.00 0.00 0.00 86 1020.2
20240223080339 31 225 1.0 2.0 0.00 0.00 0.00 85 1020.3
20240223075839 31 225 1.0 2.0 0.00 0.00 0.00 85 1020.3
20240223075337 32 227 1.0 2.0 0.00 0.00 0.00 85 1020.1
20240223074835 32 217 2.0 2.0 0.00 0.00 0.00 84 1020.3
20240223074335 32 215 1.0 1.0 0.00 0.00 0.00 84 1020.2
20240223073835 33 215 1.0 1.0 0.00 0.00 0.00 84 1020.5
20240223073335 33 225 1.0 2.0 0.00 0.00 0.00 84 1020.2
20240223072834 33 224 1.0 1.0 0.00 0.00 0.00 84 1020.3
20240223072333 33 224 1.0 1.0 0.00 0.00 0.00 85 1020.3
20240223071831 32 225 1.0 2.0 0.00 0.00 0.00 84 1020.4
20240223071330 32 223 1.0 2.0 0.00 0.00 0.00 83 1020.3
20240223070829 33 227 1.0 2.0 0.00 0.00 0.00 82 1020.7
20240223070329 34 196 0.0 0.0 0.00 0.00 0.00 82 1020.8
20240223065829 34 188 0.0 0.0 0.00 0.02 0.02 82 1020.3
20240223065327 35 190 1.0 1.0 0.00 0.02 0.02 80 1020.7
20240223064826 35 316 3.0 3.0 0.00 0.02 0.02 80 1020.7
20240223064325 36 215 0.0 1.0 0.00 0.02 0.02 80 1020.9
20240223063825 36 201 0.0 0.0 0.00 0.02 0.02 80 1020.7
20240223063323 35 201 0.0 1.0 0.00 0.02 0.02 81 1020.8
20240223062821 35 201 0.0 1.0 0.00 0.02 0.02 83 1020.9
20240223062321 35 196 0.0 1.0 0.00 0.02 0.02 83 1020.8
20240223061819 34 190 0.0 0.0 0.00 0.02 0.02 83 1021.1
20240223061318 35 190 0.0 1.0 0.00 0.02 0.02 81 1021.1
20240223060816 36 190 0.0 1.0 0.00 0.02 0.02 81 1021.3
20240223060317 35 221 2.0 3.0 0.00 0.02 0.02 82 1021.2
20240223055815 35 219 2.0 2.0 0.00 0.02 0.02 82 1021.6
20240223055313 35 228 1.0 2.0 0.00 0.02 0.02 83 1021.7
20240223054813 35 191 0.0 0.0 0.00 0.02 0.02 83 1021.6
20240223054312 35 189 0.0 0.0 0.00 0.02 0.02 82 1021.8
20240223053811 36 189 0.0 0.0 0.00 0.02 0.02 81 1021.7
20240223053310 36 204 0.0 1.0 0.00 0.02 0.02 81 1021.8
20240223052809 36 216 1.0 2.0 0.00 0.02 0.02 81 1022.3
20240223052308 36 192 1.0 1.0 0.00 0.02 0.02 81 1022.3
20240223051807 36 178 0.0 1.0 0.00 0.02 0.02 81 1022.4
20240223051305 37 117 1.0 2.0 0.00 0.02 0.02 79 1022.7
20240223050804 37 266 3.0 3.0 0.00 0.02 0.02 79 1022.7
20240223050302 38 278 4.0 4.0 0.00 0.02 0.02 78 1022.8
20240223045800 38 288 3.0 4.0 0.00 0.02 0.02 77 1022.8
20240223045259 38 303 4.0 6.0 0.00 0.02 0.02 77 1023.2
20240223044758 38 287 4.0 4.0 0.00 0.02 0.02 77 1023.5
20240223044256 37 280 3.0 3.0 0.00 0.02 0.02 79 1023.6
20240223043756 37 230 2.0 2.0 0.00 0.02 0.02 79 1023.9
20240223043255 37 207 0.0 1.0 0.00 0.02 0.02 79 1024.2
20240223042754 37 281 3.0 4.0 0.00 0.02 0.02 79 1024.2
20240223042254 37 272 4.0 6.0 0.00 0.02 0.02 80 1024.7
20240223041753 37 265 3.0 3.0 0.00 0.02 0.02 80 1025.0
20240223041252 37 216 1.0 3.0 0.00 0.02 0.02 80 1025.5
20240223040751 37 217 2.0 4.0 0.00 0.02 0.02 79 1025.7
20240223040249 37 259 3.0 4.0 0.00 0.02 0.02 79 1026.0